עמוד ראשי
METAR-TAF:

METAR-TAF

שדות תעופה :

Big Spring McMahon-Wrinkle Airport

Big Spring, טקסס, ארצות הברית

קו רוחב: 32-12N, קו אורך: 101-31W, גובה: 784מטר

תצפית מזג אוויר נוכחית

הדו"ח נערך לפני 25דקות, בשעה 11:55 UTC
רוח 3קשר מכיוון דרום/דרום-מזרח
טמפרטורת 21 צלסיוס
לחות 73%
לחץ 1023 hPa
ראות: 16.1קילומטר
שמיים נקיים

METAR: KBPG 251155Z AUTO 16003KT 10SM CLR 21/16 A3021 RMK AO2 T02140164 10262 20213

זמן: 07:20 (12:20 UTC)


TAF: חסר

תצפיות ותחזיות מזג אוויר לגבי יותר מ- 4,000 שדות תעופה ברחבי העולם. דוחות METAR ו- TAF.

התחנות הזמינות מסומנות בנקודות צהובות ואדומות על גבי המפה.

העבר את העכבר לנקודה הצבעונית על מנת לראות את שם התחנה.

לאחר מכן, לחץ כדי לראות את תוכן ואת תחזיות מזג האוויר.

כדי לשנות את המפה: לחץ על הכפתורים הירוקים עם הפלוס השחור כדי להתקרב; על הכפתור הירוק עם המקף כדי להתרחק; או בחיצים הירוקים למפות סמוכות.


METAR-TAF: